Time;durP1;ratioP1;P1;durP2;ratioP2;P2;SDS_P1;SDS_P2;PMS_P1;PMS_P2;Temp;Humidity;BMP_temperature;BMP_pressure;BME280_temperature;BME280_humidity;BME280_pressure;Samples;Min_cycle;Max_cycle;Signal;HPM_P1;HPM_P2
2022/06/02 00:40:21;;;;;;;26.42;20.90;;;;;;;;;;4349419;32;20031;-74
2022/06/02 00:42:57;;;;;;;25.73;20.80;;;;;;;;;;4361522;32;20062;-74
2022/06/02 00:45:22;;;;;;;23.42;19.58;;;;;;;;;;4363129;32;20087;-76
2022/06/02 00:47:47;;;;;;;;;;;;;;;;;;4347755;33;20035;-75
2022/06/02 00:50:32;;;;;;;20.35;18.15;;;;;;;;;;4362618;32;19962;-75
2022/06/02 00:53:03;;;;;;;20.25;18.17;;;;;;;;;;4361539;32;20035;-75
2022/06/02 00:58:31;;;;;;;21.15;18.08;;;;;;;;;;4363052;32;20054;-75
2022/06/02 01:01:02;;;;;;;19.87;16.62;;;;;;;;;;4348088;33;20418;-74
2022/06/02 01:03:35;;;;;;;23.02;20.37;;;;;;;;;;4347829;33;20458;-75
2022/06/02 01:06:00;;;;;;;24.02;19.75;;;;;;;;;;4349191;33;20039;-74
2022/06/02 01:08:25;;;;;;;;;;;;;;;;;;4348766;33;20044;-74
2022/06/02 01:11:09;;;;;;;22.65;18.55;;;;;;;;;;4348287;33;20346;-75
2022/06/02 01:13:42;;;;;;;22.50;17.67;;;;;;;;;;4346803;33;20089;-75
2022/06/02 01:16:19;;;;;;;24.35;20.70;;;;;;;;;;4346625;33;20054;-74
2022/06/02 01:18:48;;;;;;;21.65;19.35;;;;;;;;;;4332427;33;20343;-75
2022/06/02 01:21:19;;;;;;;18.77;15.70;;;;;;;;;;4333013;33;20031;-75
2022/06/02 01:23:55;;;;;;;22.23;18.55;;;;;;;;;;4346333;33;20503;-74
2022/06/02 01:26:36;;;;;;;28.52;21.55;;;;;;;;;;4346255;33;20031;-75
2022/06/02 01:29:21;;;;;;;20.62;17.10;;;;;;;;;;4347096;33;20070;-74
2022/06/02 01:32:04;;;;;;;22.95;18.48;;;;;;;;;;4347604;33;20035;-75
2022/06/02 01:34:41;;;;;;;24.58;19.17;;;;;;;;;;4347325;33;20039;-74
2022/06/02 01:37:07;;;;;;;17.90;16.10;;;;;;;;;;4345679;33;20369;-74
2022/06/02 01:39:32;;;;;;;;;;;;;;;;;;4345016;33;20098;-74
2022/06/02 01:42:04;;;;;;;17.48;15.32;;;;;;;;;;4343487;33;19949;-74
2022/06/02 01:44:38;;;;;;;19.95;17.27;;;;;;;;;;4346436;33;20198;-74
2022/06/02 01:47:13;;;;;;;20.30;17.77;;;;;;;;;;4360823;33;20026;-74
2022/06/02 01:49:59;;;;;;;22.25;17.45;;;;;;;;;;4362093;32;20066;-75
2022/06/02 01:52:28;;;;;;;22.17;18.52;;;;;;;;;;4344631;32;20500;-74
2022/06/02 01:55:05;;;;;;;20.60;18.45;;;;;;;;;;4360696;32;20071;-74
2022/06/02 01:57:30;;;;;;;20.88;17.87;;;;;;;;;;4371955;32;20035;-74
2022/06/02 01:59:56;;;;;;;;;;;;;;;;;;4363088;32;20082;-74
2022/06/02 02:02:21;;;;;;;20.27;17.15;;;;;;;;;;4362291;32;19938;-74
2022/06/02 02:04:46;;;;;;;;;;;;;;;;;;4360523;32;20089;-74
2022/06/02 02:07:26;;;;;;;17.70;15.82;;;;;;;;;;4362222;32;19934;-74
2022/06/02 02:10:10;;;;;;;17.42;15.27;;;;;;;;;;4362211;32;20337;-74
2022/06/02 02:12:35;;;;;;;16.05;14.35;;;;;;;;;;4360044;33;20031;-75
2022/06/02 02:15:00;;;;;;;;;;;;;;;;;;4348643;32;20062;-74
2022/06/02 02:17:42;;;;;;;21.15;17.20;;;;;;;;;;4361064;32;19939;-74
2022/06/02 02:20:28;;;;;;;20.85;16.80;;;;;;;;;;4360394;33;20440;-74
2022/06/02 02:23:07;;;;;;;23.75;18.48;;;;;;;;;;4361451;33;20058;-74
2022/06/02 02:25:41;;;;;;;20.35;17.42;;;;;;;;;;4362333;33;20031;-75
2022/06/02 02:28:15;;;;;;;21.48;18.67;;;;;;;;;;4361230;32;20053;-74
2022/06/02 02:30:43;;;;;;;23.20;17.85;;;;;;;;;;4365352;32;20051;-74
2022/06/02 02:33:17;;;;;;;23.10;18.73;;;;;;;;;;4364855;32;20051;-74
2022/06/02 02:36:09;;;;;;;22.48;19.02;;;;;;;;;;4365395;32;20023;-73
2022/06/02 02:38:40;;;;;;;22.45;18.08;;;;;;;;;;4343950;33;20078;-73
2022/06/02 02:41:09;;;;;;;22.25;19.02;;;;;;;;;;4364266;32;20035;-73
2022/06/02 02:43:38;;;;;;;24.02;20.85;;;;;;;;;;4364696;32;20075;-74
2022/06/02 02:46:06;;;;;;;21.40;19.05;;;;;;;;;;4363005;32;20043;-73
2022/06/02 02:48:43;;;;;;;22.90;20.50;;;;;;;;;;4362906;32;20097;-73
2022/06/02 02:51:30;;;;;;;23.27;20.00;;;;;;;;;;4364739;32;20028;-74
2022/06/02 02:54:10;;;;;;;24.73;20.83;;;;;;;;;;4341591;33;20111;-73
2022/06/02 02:56:43;;;;;;;24.87;21.52;;;;;;;;;;4364440;32;20019;-73
2022/06/02 02:59:12;;;;;;;31.58;22.30;;;;;;;;;;4363311;32;20047;-74
2022/06/02 03:01:50;;;;;;;27.62;23.65;;;;;;;;;;4363963;32;20054;-73
2022/06/02 03:04:15;;;;;;;31.00;24.90;;;;;;;;;;4363022;32;20039;-74
2022/06/02 03:06:42;;;;;;;;;;;;;;;;;;4362886;33;20393;-73
2022/06/02 03:09:22;;;;;;;25.98;23.12;;;;;;;;;;4363203;32;20260;-74
2022/06/02 03:11:56;;;;;;;29.23;24.10;;;;;;;;;;4362529;32;20445;-74
2022/06/02 03:14:26;;;;;;;31.62;24.77;;;;;;;;;;4364124;32;20031;-73
2022/06/02 03:16:57;;;;;;;28.58;23.85;;;;;;;;;;4364502;32;20062;-75
2022/06/02 03:19:31;;;;;;;27.75;23.38;;;;;;;;;;4363702;32;20114;-74
2022/06/02 03:22:25;;;;;;;28.35;22.62;;;;;;;;;;4361510;32;20065;-74
2022/06/02 03:25:02;;;;;;;30.90;25.92;;;;;;;;;;4309181;33;20059;-75
2022/06/02 03:27:35;;;;;;;25.40;21.75;;;;;;;;;;4364277;32;20035;-75
2022/06/02 03:30:09;;;;;;;30.17;24.85;;;;;;;;;;4363522;32;20474;-74
2022/06/02 03:32:37;;;;;;;30.88;25.83;;;;;;;;;;4364226;32;20090;-73
2022/06/02 03:35:21;;;;;;;32.42;25.37;;;;;;;;;;4363863;32;20119;-73
2022/06/02 03:38:13;;;;;;;30.20;24.98;;;;;;;;;;4362235;32;20034;-74
2022/06/02 03:40:53;;;;;;;35.47;27.33;;;;;;;;;;4364243;32;20459;-74
2022/06/02 03:43:28;;;;;;;29.67;23.48;;;;;;;;;;4375238;32;20055;-74
2022/06/02 03:45:53;;;;;;;37.42;27.05;;;;;;;;;;4363464;32;20052;-74
2022/06/02 03:48:34;;;;;;;39.58;27.67;;;;;;;;;;4361595;32;20047;-73
2022/06/02 03:51:18;;;;;;;34.13;26.27;;;;;;;;;;4362124;32;20150;-74
2022/06/02 03:53:43;;;;;;;34.72;27.00;;;;;;;;;;4364843;32;20105;-73
2022/06/02 03:56:08;;;;;;;;;;;;;;;;;;4365388;32;20039;-74
2022/06/02 03:58:45;;;;;;;33.40;25.58;;;;;;;;;;4365821;32;20012;-75
2022/06/02 04:01:12;;;;;;;32.70;24.95;;;;;;;;;;4374429;32;20039;-74
2022/06/02 04:03:56;;;;;;;34.53;26.23;;;;;;;;;;4363706;32;20082;-74
2022/06/02 04:06:27;;;;;;;29.83;24.42;;;;;;;;;;4374729;32;20084;-74
2022/06/02 04:09:02;;;;;;;32.70;26.40;;;;;;;;;;4362303;32;20039;-74
2022/06/02 04:14:39;;;;;;;31.02;24.15;;;;;;;;;;4363792;32;20045;-76
2022/06/02 04:17:26;;;;;;;28.65;24.27;;;;;;;;;;4363811;32;20058;-74
2022/06/02 04:22:47;;;;;;;27.90;21.40;;;;;;;;;;4363380;32;20054;-74
2022/06/02 04:25:22;;;;;;;30.05;24.80;;;;;;;;;;4363558;32;20032;-74
2022/06/02 04:27:54;;;;;;;28.38;22.92;;;;;;;;;;4361608;32;20585;-73
2022/06/02 04:30:38;;;;;;;29.63;23.10;;;;;;;;;;4361744;32;20426;-75
2022/06/02 04:33:09;;;;;;;31.90;24.02;;;;;;;;;;4361858;32;20031;-75
2022/06/02 04:36:05;;;;;;;27.08;21.92;;;;;;;;;;4363904;32;20055;-74
2022/06/02 04:38:39;;;;;;;28.08;22.45;;;;;;;;;;4349056;32;20089;-75
2022/06/02 04:41:20;;;;;;;25.80;22.83;;;;;;;;;;4363681;32;20067;-74
2022/06/02 04:43:49;;;;;;;31.83;23.90;;;;;;;;;;4363049;32;20114;-74
2022/06/02 04:46:25;;;;;;;28.55;21.80;;;;;;;;;;4362848;32;20089;-74
2022/06/02 04:48:54;;;;;;;25.00;21.62;;;;;;;;;;4361894;32;20027;-76
2022/06/02 04:51:20;;;;;;;27.67;22.45;;;;;;;;;;4362515;32;20053;-74
2022/06/02 04:53:45;;;;;;;;;;;;;;;;;;4363192;32;20077;-75
2022/06/02 04:56:19;;;;;;;25.88;20.37;;;;;;;;;;4361493;32;19934;-74
2022/06/02 04:58:51;;;;;;;25.70;22.75;;;;;;;;;;4363059;32;20560;-75
2022/06/02 05:01:22;;;;;;;23.67;21.08;;;;;;;;;;4362654;32;20031;-74
2022/06/02 05:04:06;;;;;;;25.75;21.87;;;;;;;;;;4361233;32;20031;-74
2022/06/02 05:06:41;;;;;;;25.27;21.48;;;;;;;;;;4362488;32;20040;-74
2022/06/02 05:09:26;;;;;;;26.55;22.23;;;;;;;;;;4363221;32;20085;-75
2022/06/02 05:11:57;;;;;;;24.87;19.50;;;;;;;;;;4360608;32;20027;-74
2022/06/02 05:14:26;;;;;;;25.75;19.87;;;;;;;;;;4372740;32;20057;-75
2022/06/02 05:16:51;;;;;;;24.25;19.27;;;;;;;;;;4362508;32;20073;-74
2022/06/02 05:19:40;;;;;;;21.48;17.55;;;;;;;;;;4361475;32;20023;-76
2022/06/02 05:22:23;;;;;;;25.27;17.83;;;;;;;;;;4348934;32;20150;-74
2022/06/02 05:25:04;;;;;;;18.75;16.83;;;;;;;;;;4362659;32;20039;-74
2022/06/02 05:27:52;;;;;;;20.92;16.90;;;;;;;;;;4362353;32;20081;-73
2022/06/02 05:30:31;;;;;;;18.77;14.45;;;;;;;;;;4361975;32;20030;-73
2022/06/02 05:33:06;;;;;;;17.37;14.90;;;;;;;;;;4348694;33;20024;-74
2022/06/02 05:35:31;;;;;;;18.40;13.70;;;;;;;;;;4348101;33;20051;-73
2022/06/02 05:38:00;;;;;;;14.13;12.70;;;;;;;;;;4360753;32;20088;-73
2022/06/02 05:40:26;;;;;;;15.77;11.32;;;;;;;;;;4348885;32;20170;-74
2022/06/02 05:43:02;;;;;;;9.93;8.75;;;;;;;;;;4362178;32;20039;-74
2022/06/02 05:45:36;;;;;;;10.27;8.65;;;;;;;;;;4359203;33;20043;-74
2022/06/02 05:48:24;;;;;;;15.27;9.63;;;;;;;;;;4361394;32;20023;-73
2022/06/02 05:51:04;;;;;;;13.65;8.70;;;;;;;;;;4360710;32;20073;-73
2022/06/02 05:53:36;;;;;;;11.60;9.48;;;;;;;;;;4371925;32;20085;-73
2022/06/02 05:56:03;;;;;;;15.02;10.25;;;;;;;;;;4361689;32;20061;-74
2022/06/02 05:58:41;;;;;;;10.65;7.97;;;;;;;;;;4360107;32;20047;-73
2022/06/02 06:01:27;;;;;;;8.32;7.57;;;;;;;;;;4360465;32;20057;-74
2022/06/02 06:03:56;;;;;;;9.52;8.32;;;;;;;;;;4360027;33;20035;-74
2022/06/02 06:06:39;;;;;;;10.82;9.70;;;;;;;;;;4360059;32;20062;-73
2022/06/02 06:09:15;;;;;;;8.52;7.40;;;;;;;;;;4361092;32;20067;-74
2022/06/02 06:11:50;;;;;;;6.37;5.30;;;;;;;;;;4360602;32;20396;-73
2022/06/02 06:14:15;;;;;;;8.48;6.40;;;;;;;;;;4361577;32;20098;-74
2022/06/02 06:16:52;;;;;;;7.82;7.07;;;;;;;;;;4360484;32;20051;-74
2022/06/02 06:19:31;;;;;;;8.75;6.75;;;;;;;;;;4360770;32;20155;-74
2022/06/02 06:21:59;;;;;;;16.08;7.47;;;;;;;;;;4361735;32;20077;-74
2022/06/02 06:24:32;;;;;;;12.30;7.90;;;;;;;;;;4359503;33;20027;-74
2022/06/02 06:27:06;;;;;;;11.10;6.80;;;;;;;;;;4361769;33;20061;-74
2022/06/02 06:29:37;;;;;;;11.35;8.00;;;;;;;;;;4362044;33;20054;-74
2022/06/02 06:32:06;;;;;;;10.02;8.30;;;;;;;;;;4347522;33;20114;-74
2022/06/02 06:34:34;;;;;;;12.82;8.05;;;;;;;;;;4361395;33;20031;-74
2022/06/02 06:37:18;;;;;;;13.25;9.73;;;;;;;;;;4359542;32;20027;-74
2022/06/02 06:39:49;;;;;;;8.25;5.78;;;;;;;;;;4359640;32;20181;-74
2022/06/02 06:42:41;;;;;;;6.68;5.40;;;;;;;;;;4360765;33;20071;-73
2022/06/02 06:45:17;;;;;;;8.60;5.15;;;;;;;;;;4359605;33;20040;-73
2022/06/02 06:47:51;;;;;;;7.60;6.45;;;;;;;;;;4361079;32;20289;-72
2022/06/02 06:50:25;;;;;;;8.00;6.35;;;;;;;;;;4360987;33;20031;-73
2022/06/02 06:52:56;;;;;;;10.40;8.73;;;;;;;;;;4346188;33;20031;-73
2022/06/02 06:55:39;;;;;;;13.73;8.40;;;;;;;;;;4358259;33;20381;-73
2022/06/02 06:58:13;;;;;;;6.97;6.20;;;;;;;;;;4360268;33;20391;-72
2022/06/02 07:01:02;;;;;;;14.95;7.18;;;;;;;;;;4358394;33;20031;-74
2022/06/02 07:03:46;;;;;;;10.23;7.68;;;;;;;;;;4340106;33;20346;-73
2022/06/02 07:06:33;;;;;;;11.07;7.25;;;;;;;;;;4359946;32;20035;-73
2022/06/02 07:08:58;;;;;;;;;;;;;;;;;;4361239;32;20027;-74
2022/06/02 07:14:38;;;;;;;8.38;6.10;;;;;;;;;;4362520;32;20475;-74
2022/06/02 07:17:07;;;;;;;7.47;6.12;;;;;;;;;;4363615;32;20035;-73
2022/06/02 07:19:49;;;;;;;8.77;7.25;;;;;;;;;;4364056;32;20035;-74
2022/06/02 07:22:24;;;;;;;11.55;8.77;;;;;;;;;;4362822;33;20093;-74
2022/06/02 07:25:03;;;;;;;12.68;7.47;;;;;;;;;;4362536;32;20040;-73
2022/06/02 07:27:44;;;;;;;10.95;7.70;;;;;;;;;;4363884;32;20035;-73
2022/06/02 07:30:15;;;;;;;8.75;7.43;;;;;;;;;;4364229;32;20053;-73
2022/06/02 07:33:02;;;;;;;13.20;10.13;;;;;;;;;;4363138;32;20036;-74
2022/06/02 07:35:54;;;;;;;11.52;8.60;;;;;;;;;;4363936;32;20059;-73
2022/06/02 07:38:25;;;;;;;12.15;8.80;;;;;;;;;;4361304;32;20043;-74
2022/06/02 07:40:55;;;;;;;10.23;8.45;;;;;;;;;;4362344;32;20035;-73
2022/06/02 07:43:33;;;;;;;10.57;8.27;;;;;;;;;;4363648;32;20123;-73
2022/06/02 07:46:19;;;;;;;12.65;10.63;;;;;;;;;;4363597;32;20027;-73
2022/06/02 07:48:44;;;;;;;11.30;10.10;;;;;;;;;;4361836;32;20349;-73
2022/06/02 07:51:12;;;;;;;16.30;11.05;;;;;;;;;;4362868;32;20065;-73
2022/06/02 07:53:46;;;;;;;10.43;9.27;;;;;;;;;;4375099;32;20032;-73
2022/06/02 07:56:27;;;;;;;14.95;9.90;;;;;;;;;;4363233;32;20031;-74
2022/06/02 07:59:04;;;;;;;11.35;9.23;;;;;;;;;;4363856;32;20019;-75
2022/06/02 08:01:45;;;;;;;10.20;8.63;;;;;;;;;;4361962;32;20451;-73
2022/06/02 08:04:17;;;;;;;9.88;7.53;;;;;;;;;;4363604;32;20447;-74
2022/06/02 08:06:49;;;;;;;11.25;7.68;;;;;;;;;;4374370;32;20039;-73
2022/06/02 08:09:29;;;;;;;9.20;6.75;;;;;;;;;;4363674;32;20036;-74
2022/06/02 08:12:03;;;;;;;12.27;6.75;;;;;;;;;;4363712;32;20096;-74
2022/06/02 08:14:40;;;;;;;9.55;7.20;;;;;;;;;;4373264;32;20050;-74
2022/06/02 08:17:20;;;;;;;9.90;6.47;;;;;;;;;;4363160;32;20067;-74
2022/06/02 08:20:07;;;;;;;8.35;6.45;;;;;;;;;;4363701;32;20027;-74
2022/06/02 08:22:36;;;;;;;9.00;7.03;;;;;;;;;;4349620;32;20031;-74
2022/06/02 08:25:04;;;;;;;6.68;5.47;;;;;;;;;;4362664;32;20459;-74
2022/06/02 08:27:38;;;;;;;7.70;6.28;;;;;;;;;;4362989;32;20065;-74
2022/06/02 08:30:23;;;;;;;8.48;6.97;;;;;;;;;;4362162;32;20405;-74
2022/06/02 08:32:58;;;;;;;8.90;6.85;;;;;;;;;;4362526;32;20418;-74
2022/06/02 08:35:29;;;;;;;8.05;5.82;;;;;;;;;;4361765;32;20407;-74
2022/06/02 08:38:15;;;;;;;7.97;6.78;;;;;;;;;;4361573;32;20078;-74
2022/06/02 08:40:59;;;;;;;9.63;7.50;;;;;;;;;;4362473;32;20028;-74
2022/06/02 08:43:36;;;;;;;9.05;6.45;;;;;;;;;;4363384;32;20071;-73
2022/06/02 08:46:15;;;;;;;8.52;6.93;;;;;;;;;;4361612;32;20098;-73
2022/06/02 08:48:59;;;;;;;8.45;7.32;;;;;;;;;;4363362;32;20098;-74
2022/06/02 08:51:27;;;;;;;8.27;7.00;;;;;;;;;;4363163;32;20070;-74
2022/06/02 08:54:11;;;;;;;8.32;6.70;;;;;;;;;;4364888;32;20053;-73
2022/06/02 08:56:50;;;;;;;9.02;7.10;;;;;;;;;;4363063;32;20028;-72
2022/06/02 08:59:18;;;;;;;18.50;7.18;;;;;;;;;;4363358;32;20481;-72
2022/06/02 09:01:46;;;;;;;6.97;5.87;;;;;;;;;;4363072;32;20028;-73
2022/06/02 09:04:30;;;;;;;8.00;5.95;;;;;;;;;;4361289;32;20035;-73
2022/06/02 09:07:14;;;;;;;9.35;6.05;;;;;;;;;;4361699;32;20085;-73
2022/06/02 09:09:58;;;;;;;7.43;6.25;;;;;;;;;;4373988;32;20439;-73
2022/06/02 09:12:42;;;;;;;11.52;6.62;;;;;;;;;;4361008;32;20072;-74
2022/06/02 09:15:23;;;;;;;7.68;6.28;;;;;;;;;;4360672;32;20031;-73
2022/06/02 09:18:05;;;;;;;11.23;6.82;;;;;;;;;;4360848;32;20078;-73
2022/06/02 09:20:43;;;;;;;8.50;7.03;;;;;;;;;;4362740;32;20402;-74
2022/06/02 09:23:15;;;;;;;12.60;6.45;;;;;;;;;;4361174;32;20047;-73
2022/06/02 09:25:52;;;;;;;7.40;5.82;;;;;;;;;;4361118;32;20154;-73
2022/06/02 09:28:26;;;;;;;7.22;6.37;;;;;;;;;;4360616;32;20174;-73
2022/06/02 09:31:10;;;;;;;6.90;4.53;;;;;;;;;;4362811;32;20027;-74
2022/06/02 09:33:54;;;;;;;5.80;5.00;;;;;;;;;;4360809;32;20086;-74
2022/06/02 09:36:42;;;;;;;7.45;4.95;;;;;;;;;;4359377;32;20406;-74
2022/06/02 09:39:10;;;;;;;5.45;4.43;;;;;;;;;;4359835;32;20047;-74
2022/06/02 09:41:38;;;;;;;7.47;4.80;;;;;;;;;;4361512;32;20024;-74
2022/06/02 09:44:11;;;;;;;8.80;4.60;;;;;;;;;;4360516;32;20422;-73
2022/06/02 09:46:55;;;;;;;31.27;6.57;;;;;;;;;;4360032;32;20426;-73
2022/06/02 09:49:38;;;;;;;24.42;5.55;;;;;;;;;;4360145;33;20031;-74
2022/06/02 09:52:06;;;;;;;26.33;5.87;;;;;;;;;;4360869;32;20066;-74
2022/06/02 09:54:43;;;;;;;9.95;4.95;;;;;;;;;;4360820;32;20098;-75
2022/06/02 10:00:23;;;;;;;9.45;3.95;;;;;;;;;;4362171;32;20057;-73
2022/06/02 10:03:07;;;;;;;7.25;4.32;;;;;;;;;;4360307;33;20039;-73
2022/06/02 10:05:51;;;;;;;6.65;4.75;;;;;;;;;;4360036;32;20364;-74
2022/06/02 10:08:25;;;;;;;6.57;4.00;;;;;;;;;;4371636;32;20393;-74
2022/06/02 10:11:08;;;;;;;4.43;3.53;;;;;;;;;;4361797;32;20035;-74
2022/06/02 10:13:46;;;;;;;4.97;3.17;;;;;;;;;;4361544;32;20031;-75
2022/06/02 10:16:24;;;;;;;6.62;4.12;;;;;;;;;;4360209;33;20117;-75
2022/06/02 10:18:55;;;;;;;4.30;3.20;;;;;;;;;;4360101;32;20447;-74
2022/06/02 10:21:33;;;;;;;5.15;3.87;;;;;;;;;;4361519;32;20031;-73
2022/06/02 10:24:17;;;;;;;5.00;3.30;;;;;;;;;;4359859;32;20061;-73
2022/06/02 10:26:48;;;;;;;5.12;3.35;;;;;;;;;;4360226;33;20027;-74
2022/06/02 10:29:40;;;;;;;7.93;4.75;;;;;;;;;;4361810;33;20058;-74
2022/06/02 10:32:22;;;;;;;7.70;4.20;;;;;;;;;;4361656;32;20472;-74
2022/06/02 10:35:06;;;;;;;7.10;4.43;;;;;;;;;;4361337;32;20323;-75
2022/06/02 10:37:33;;;;;;;6.22;4.43;;;;;;;;;;4359405;32;20070;-74
2022/06/02 10:40:17;;;;;;;7.70;4.65;;;;;;;;;;4360349;32;20051;-74
2022/06/02 10:42:48;;;;;;;6.82;5.00;;;;;;;;;;4360024;33;20060;-73
2022/06/02 10:45:32;;;;;;;9.18;5.07;;;;;;;;;;4360001;33;20083;-74
2022/06/02 10:48:00;;;;;;;7.85;4.53;;;;;;;;;;4359551;32;20035;-74
2022/06/02 10:50:34;;;;;;;6.68;4.43;;;;;;;;;;4364518;32;20062;-74
2022/06/02 10:53:06;;;;;;;6.22;4.95;;;;;;;;;;4364290;32;20035;-74
2022/06/02 10:55:50;;;;;;;6.28;4.05;;;;;;;;;;4362757;32;20031;-73
2022/06/02 10:58:28;;;;;;;7.62;4.40;;;;;;;;;;4363567;32;20104;-73
2022/06/02 11:01:02;;;;;;;7.80;4.37;;;;;;;;;;4362512;32;20031;-74
2022/06/02 11:03:27;;;;;;;4.40;3.22;;;;;;;;;;4363533;32;20057;-74
2022/06/02 11:06:11;;;;;;;5.20;3.10;;;;;;;;;;4363762;32;20094;-74
2022/06/02 11:08:48;;;;;;;5.25;3.50;;;;;;;;;;4361148;33;20040;-73
2022/06/02 11:11:13;;;;;;;6.43;3.20;;;;;;;;;;4363972;32;20436;-74
2022/06/02 11:13:39;;;;;;;4.40;3.12;;;;;;;;;;4362656;32;20034;-73
2022/06/02 11:16:10;;;;;;;7.55;3.22;;;;;;;;;;4364028;32;20168;-74
2022/06/02 11:18:54;;;;;;;4.60;2.80;;;;;;;;;;4363731;32;20039;-73
2022/06/02 11:21:25;;;;;;;7.28;3.15;;;;;;;;;;4361993;33;20083;-73
2022/06/02 11:24:09;;;;;;;10.48;3.92;;;;;;;;;;4361251;33;20089;-73
2022/06/02 11:26:53;;;;;;;3.95;2.97;;;;;;;;;;4363940;32;20073;-73
2022/06/02 11:29:21;;;;;;;6.55;3.40;;;;;;;;;;4363992;32;20036;-74
2022/06/02 11:31:46;;;;;;;4.68;2.70;;;;;;;;;;4364050;32;20061;-73
2022/06/02 11:34:44;;;;;;;4.10;2.50;;;;;;;;;;4361848;32;20031;-74
2022/06/02 11:37:18;;;;;;;4.90;2.97;;;;;;;;;;4338029;32;20158;-73
2022/06/02 11:39:51;;;;;;;4.55;3.15;;;;;;;;;;4362096;32;20051;-73
2022/06/02 11:42:32;;;;;;;4.12;2.85;;;;;;;;;;4362507;32;20106;-74
2022/06/02 11:45:09;;;;;;;6.28;3.00;;;;;;;;;;4363386;32;20077;-73
2022/06/02 11:47:43;;;;;;;6.05;3.08;;;;;;;;;;4361989;32;20028;-74
2022/06/02 11:50:27;;;;;;;7.03;2.97;;;;;;;;;;4363764;32;20062;-73
2022/06/02 11:53:09;;;;;;;4.03;3.10;;;;;;;;;;4361854;32;20050;-74
2022/06/02 11:55:58;;;;;;;5.75;3.37;;;;;;;;;;4362327;32;20083;-74
2022/06/02 11:58:24;;;;;;;8.80;4.07;;;;;;;;;;4363430;32;20099;-74
2022/06/02 12:01:12;;;;;;;4.65;3.40;;;;;;;;;;4363491;32;20058;-73
2022/06/02 12:03:41;;;;;;;5.20;3.22;;;;;;;;;;4361975;32;20032;-73
2022/06/02 12:06:21;;;;;;;4.65;2.97;;;;;;;;;;4361913;32;20102;-73
2022/06/02 12:08:59;;;;;;;4.50;3.42;;;;;;;;;;4373381;32;20093;-73
2022/06/02 12:11:36;;;;;;;7.60;3.45;;;;;;;;;;4361533;32;20023;-73
2022/06/02 12:14:07;;;;;;;3.20;2.78;;;;;;;;;;4374627;32;20322;-73
2022/06/02 12:16:41;;;;;;;5.10;3.25;;;;;;;;;;4362704;32;20157;-73
2022/06/02 12:19:07;;;;;;;5.78;3.03;;;;;;;;;;4359959;33;20467;-74
2022/06/02 12:21:44;;;;;;;4.43;3.10;;;;;;;;;;4362412;32;20032;-73
2022/06/02 12:24:28;;;;;;;4.72;2.97;;;;;;;;;;4362453;32;20036;-73
2022/06/02 12:26:53;;;;;;;4.93;3.03;;;;;;;;;;4361677;33;20028;-73
2022/06/02 12:29:37;;;;;;;4.57;2.92;;;;;;;;;;4361632;32;20062;-74
2022/06/02 12:32:22;;;;;;;3.65;2.87;;;;;;;;;;4362491;32;20390;-73
2022/06/02 12:35:06;;;;;;;4.67;3.40;;;;;;;;;;4361363;33;20066;-75
2022/06/02 12:37:31;;;;;;;5.82;3.45;;;;;;;;;;4361449;32;20057;-74
2022/06/02 12:39:57;;;;;;;3.62;3.22;;;;;;;;;;4360949;32;20047;-73
2022/06/02 12:42:41;;;;;;;5.22;4.07;;;;;;;;;;4362440;32;20512;-74
2022/06/02 12:45:15;;;;;;;5.12;3.65;;;;;;;;;;4362798;32;20061;-74
2022/06/02 12:47:52;;;;;;;5.10;3.72;;;;;;;;;;4362551;32;20397;-74
2022/06/02 12:50:34;;;;;;;6.22;3.95;;;;;;;;;;4363138;32;20031;-73
2022/06/02 12:53:05;;;;;;;4.62;3.80;;;;;;;;;;4361598;32;20047;-74
2022/06/02 12:55:48;;;;;;;5.18;3.75;;;;;;;;;;4361334;32;20031;-73
2022/06/02 12:58:21;;;;;;;6.28;3.22;;;;;;;;;;4372601;32;20338;-73
2022/06/02 13:00:48;;;;;;;4.55;3.70;;;;;;;;;;4362535;32;20057;-74
2022/06/02 13:03:32;;;;;;;7.22;4.32;;;;;;;;;;4361462;32;20027;-74
2022/06/02 13:06:27;;;;;;;4.75;3.80;;;;;;;;;;4374166;32;20084;-74
2022/06/02 13:09:11;;;;;;;4.97;3.60;;;;;;;;;;4362939;32;20028;-76
2022/06/02 13:11:44;;;;;;;7.68;4.18;;;;;;;;;;4362819;32;20363;-75
2022/06/02 13:14:32;;;;;;;6.10;4.07;;;;;;;;;;4361985;32;20050;-73
2022/06/02 13:17:13;;;;;;;4.82;3.72;;;;;;;;;;4357879;32;20048;-74
2022/06/02 13:19:57;;;;;;;4.82;4.30;;;;;;;;;;4346187;33;20039;-73
2022/06/02 13:22:28;;;;;;;6.45;4.28;;;;;;;;;;4346207;33;20059;-73
2022/06/02 13:25:02;;;;;;;5.37;4.25;;;;;;;;;;4348448;33;20062;-74
2022/06/02 13:27:27;;;;;;;6.28;3.78;;;;;;;;;;4347782;33;20035;-73
2022/06/02 13:30:11;;;;;;;4.40;3.53;;;;;;;;;;4347455;32;20082;-73
2022/06/02 13:32:43;;;;;;;5.65;3.97;;;;;;;;;;4344083;33;20128;-74
2022/06/02 13:35:26;;;;;;;6.97;4.40;;;;;;;;;;4347369;33;20078;-74
2022/06/02 13:37:58;;;;;;;4.25;3.37;;;;;;;;;;4345630;33;20043;-74
2022/06/02 13:40:41;;;;;;;5.75;4.03;;;;;;;;;;4347195;33;20056;-74
2022/06/02 13:43:07;;;;;;;5.47;3.80;;;;;;;;;;4344551;33;20053;-73
2022/06/02 13:45:47;;;;;;;3.40;3.10;;;;;;;;;;4364530;32;20035;-74
2022/06/02 13:48:27;;;;;;;5.78;3.25;;;;;;;;;;4361866;32;20419;-74
2022/06/02 13:51:28;;;;;;;6.45;3.50;;;;;;;;;;4360446;32;20054;-74
2022/06/02 13:57:31;;;;;;;3.70;2.80;;;;;;;;;;4353456;32;20131;-74
2022/06/02 14:00:07;;;;;;;5.55;3.30;;;;;;;;;;4372291;32;20035;-73
2022/06/02 14:02:51;;;;;;;7.53;3.10;;;;;;;;;;4360493;32;20455;-73
2022/06/02 14:05:48;;;;;;;4.43;3.40;;;;;;;;;;4359882;33;20035;-73
2022/06/02 14:08:19;;;;;;;4.20;3.15;;;;;;;;;;4350525;33;20043;-74
2022/06/02 14:11:05;;;;;;;3.15;2.85;;;;;;;;;;4372717;32;20031;-74
2022/06/02 14:13:30;;;;;;;4.07;2.95;;;;;;;;;;4360450;32;20035;-74
2022/06/02 14:16:02;;;;;;;4.07;3.30;;;;;;;;;;4361203;32;20084;-73
2022/06/02 14:18:27;;;;;;;5.55;3.47;;;;;;;;;;4360431;32;20123;-73
2022/06/02 14:20:58;;;;;;;5.35;3.08;;;;;;;;;;4362634;32;20215;-73
2022/06/02 14:23:35;;;;;;;4.90;3.28;;;;;;;;;;4361884;32;20068;-74
2022/06/02 14:26:21;;;;;;;5.35;3.50;;;;;;;;;;4359635;32;20088;-74
2022/06/02 14:28:46;;;;;;;4.32;3.20;;;;;;;;;;4361760;33;20027;-73
2022/06/02 14:31:15;;;;;;;9.77;3.65;;;;;;;;;;4360019;33;20353;-74
2022/06/02 14:33:43;;;;;;;4.10;3.55;;;;;;;;;;4361341;33;20039;-74
2022/06/02 14:36:18;;;;;;;4.37;3.05;;;;;;;;;;4361740;32;20028;-72
2022/06/02 14:39:07;;;;;;;6.07;4.03;;;;;;;;;;4358714;32;20107;-72
2022/06/02 14:41:40;;;;;;;5.00;4.00;;;;;;;;;;4360211;32;20135;-73
2022/06/02 14:44:13;;;;;;;5.47;3.92;;;;;;;;;;4359887;33;20089;-74
2022/06/02 14:46:53;;;;;;;6.65;4.30;;;;;;;;;;4356189;32;20401;-72
2022/06/02 14:49:33;;;;;;;4.93;3.35;;;;;;;;;;4361671;33;20027;-72
2022/06/02 14:52:13;;;;;;;12.43;5.20;;;;;;;;;;4360681;33;20059;-72
2022/06/02 14:54:44;;;;;;;6.68;4.97;;;;;;;;;;4361927;32;20031;-72
2022/06/02 14:57:28;;;;;;;6.95;4.40;;;;;;;;;;4359702;32;20058;-72
2022/06/02 15:00:06;;;;;;;4.40;4.00;;;;;;;;;;4359140;33;20099;-73
2022/06/02 15:02:43;;;;;;;5.70;3.78;;;;;;;;;;4360084;33;20023;-74
2022/06/02 15:05:24;;;;;;;5.30;3.33;;;;;;;;;;4370868;32;20031;-72
2022/06/02 15:07:58;;;;;;;4.53;4.03;;;;;;;;;;4359123;33;20027;-74
2022/06/02 15:10:29;;;;;;;6.28;3.97;;;;;;;;;;4361824;33;20376;-73
2022/06/02 15:13:12;;;;;;;4.22;3.10;;;;;;;;;;4362125;32;20081;-72
2022/06/02 15:15:55;;;;;;;5.72;3.75;;;;;;;;;;4360376;33;20031;-72
2022/06/02 15:18:39;;;;;;;7.12;4.65;;;;;;;;;;4344505;33;20127;-74
2022/06/02 15:21:04;;;;;;;3.72;3.03;;;;;;;;;;4343986;33;20043;-73
2022/06/02 15:23:45;;;;;;;3.92;3.42;;;;;;;;;;4345208;33;20327;-74
2022/06/02 15:26:29;;;;;;;7.07;3.97;;;;;;;;;;4345203;33;20059;-73
2022/06/02 15:29:13;;;;;;;4.35;3.60;;;;;;;;;;4344119;33;20032;-73
2022/06/02 15:31:44;;;;;;;4.25;3.85;;;;;;;;;;4345253;33;20075;-73
2022/06/02 15:34:24;;;;;;;7.70;4.07;;;;;;;;;;4344869;33;20409;-73
2022/06/02 15:37:02;;;;;;;3.95;3.17;;;;;;;;;;4348933;33;20081;-74
2022/06/02 15:39:46;;;;;;;5.30;3.90;;;;;;;;;;4348011;33;20425;-73
2022/06/02 15:42:23;;;;;;;4.80;3.00;;;;;;;;;;4347150;33;20066;-72
2022/06/02 15:45:07;;;;;;;7.68;3.53;;;;;;;;;;4355575;32;20369;-73
2022/06/02 15:47:42;;;;;;;3.83;3.20;;;;;;;;;;4374354;32;20038;-74
2022/06/02 15:50:07;;;;;;;7.30;3.28;;;;;;;;;;4361612;32;20085;-74
2022/06/02 15:53:01;;;;;;;2.87;2.50;;;;;;;;;;4363714;32;20087;-72
2022/06/02 15:55:33;;;;;;;4.10;2.95;;;;;;;;;;4362612;32;20027;-74
2022/06/02 15:57:58;;;;;;;7.15;2.97;;;;;;;;;;4361603;32;20032;-74
2022/06/02 16:00:32;;;;;;;5.15;2.72;;;;;;;;;;4362063;32;20027;-73
2022/06/02 16:03:07;;;;;;;3.65;2.55;;;;;;;;;;4363802;32;20373;-73
2022/06/02 16:05:51;;;;;;;3.58;2.30;;;;;;;;;;4362266;32;20089;-74
2022/06/02 16:08:32;;;;;;;5.97;2.28;;;;;;;;;;4363480;32;20404;-73
2022/06/02 16:11:16;;;;;;;3.05;2.12;;;;;;;;;;4373160;32;20057;-74
2022/06/02 16:13:53;;;;;;;5.05;2.70;;;;;;;;;;4363461;32;20040;-74
2022/06/02 16:16:34;;;;;;;5.03;2.70;;;;;;;;;;4363304;32;20058;-74
2022/06/02 16:19:03;;;;;;;3.92;2.75;;;;;;;;;;4362633;32;20393;-73
2022/06/02 16:21:42;;;;;;;6.28;2.85;;;;;;;;;;4361603;32;20023;-73
2022/06/02 16:24:24;;;;;;;6.12;2.95;;;;;;;;;;4363189;32;20035;-73
2022/06/02 16:27:08;;;;;;;7.45;2.85;;;;;;;;;;4361781;32;20146;-74